Airfield :
LOGIN :

Register | Disclaimer

   EN    FR    IT 

 










Legend :    VFR   Marginal VFR   IFR   Intensive IFR   Very Intensive IFR
Visi :
Ceiling :
>= 8 km
>= 3000ft
5 to 8 km
1000 to 3000 ft
1500m to 5 km
500 to 1000 ft
800 to 1500m
200 to 500 ft
< 800m
< 200 ft
Symbols :   Thunderstorms  Fog  Heavy snow  Heavy precipitations  Wind > 20 kt
SIGMETs :     Misc.  Thunderstorms  Icing  Turbulence  Mountain Waves  Volcanic Ashes






- Airport Elevation : 1487 ft
- IATA code : MUC


EDDM - München Franz Josef Strauss

CURRENT METAR :
  • 091450Z 24020KT 9999 -SHRA SCT030 07/03 Q1005 BECMG 25013KT

EXPIRED METARs :
  • 091420Z 25013KT 9999 VCSH FEW040 09/01 Q1005 TEMPO 25015G25KT
  • 091350Z 25014KT 9999 FEW042 09/01 Q1004 NOSIG
  • 091320Z 25018KT 9999 FEW042 09/00 Q1004 NOSIG
  • 091250Z 26013KT 9999 FEW042 10/01 Q1004 NOSIG
  • 091220Z 26018KT 9999 FEW042 09/01 Q1005 NOSIG
  • 091150Z 26018KT 9999 FEW042 09/01 Q1005 NOSIG

TAF TAF EDDM
Valid from the 09 at 12:00 until the 10 at 18:00 UTC


091100Z 0912/1018 24015G30KT 9999 BKN030
BECMG 0915/0917 24010KT
PROB30
TEMPO 0918/0922 26015G25KT SHRA SCT014 BKN020TCU
BECMG 1000/1002 30012KT
PROB30
TEMPO 1001/1005 31015G25KT 3000 SHSNRA BKN010 BKN020TCU
PROB30
TEMPO 1003/1005 BKN008
BECMG 1006/1008 28007KT
BECMG 1015/1017 22004KT



MET'MAP, your aeronautical weather chart ! - Copyright ORBIFLY December 2007 - Disclaimer

ORBIFLY MET'MAP TEAM :

Programming & Development : Alexandra Zaïnal
Concept & original design : Baudouin d'Aumeries
Assistance for programming : Marc-Olivier Méhu
Technical & hardware support : Manuel Goepfert

Contact : metmap@orbifly.com




SOURCES & CREDITS :

   NOAA